Aviation Digital Data Service (ADDS)

Output produced by METARs form (1802 UTC 19 October 2017)
found at http://www.aviationweather.gov/adds/metars/
 
MGGT 191800Z 02012KT 9999 SCT020 BKN200 24/16 Q1025 A3027 FEW080
TAF MGGT 191700Z 1918/2018 36014KT 9999 SCT020 TX25/1920Z TN15/2012Z 
     BECMG 1916/1918 36014 SCT018 
     BECMG 2001/2003 36010KT SCT016 
     TEMPO 2009/2012 9000 DZ BKN012 
     BECMG 2015/2017 36012KT SCT018
       
MGPB 191700Z 30004KT 9999 SCT016 OVC080 26/24 Q1015 A2997 PCPN DIST NNW
TAF MGPB 191700Z 1918/2018 05008KT 9999 SCT018 TX31/1920Z TN22/2012Z 
     BECMG 2001/2003 00000KT FEW016 
     TEMPO 2009/2012 8000 VCTSRA FEW025CB 
     BECMG 2015/2017 06008KT SCT018
       
MGRT 191700Z 22004KT CAVOK 33/21 Q1013 A2991 BKN090 FEW200 VOL. STA. MARIA Y SANTIAGUITO EN ACTIVIDAD
MGSJ 191700Z 16006KT CAVOK 34/24 Q1011 A2985 OVC200
TAF MGSJ 191700Z 1918/2018 20008KT 9999 SCT020 TX34/1920Z TN23/2012Z 
     BECMG 2000/2002 00000KT CAVOK 
     TEMPO 2006/2012 FEW014 
     BECMG 2015/2017 20008KT 9999 FEW018